Terminal Aerodrome Forecast
Issued by NWS

Home | Current Version | Previous Version | Text Only | Print | Product List | Glossary On
Versions: 1 2 3 4 5 6 7 8 9 10 11 12 13 14
000
FTAK31 PANC 211740
TAFAIL
TAF
PAIL 211740Z 2118/2218 02008KT P6SM SCT150
     FM212100 05010KT P6SM VCSH SCT050 BKN100
     FM220000 02012G20KT 6SM -SN SCT020 BKN035
     FM220300 07018G25KT 3SM -SN BKN010 OVC025 WS010/14035KT
     FM221000 10012G20KT 1SM -SN BLSN BKN007=

USA.gov is the U.S. government's official web portal to all federal, state and local government web resources and services.